createdAt,value
2022-10-03T00:00:34.892Z,10.61
2022-10-03T00:01:34.889Z,10.61
2022-10-03T00:02:34.931Z,10.57
2022-10-03T00:03:34.842Z,10.54
2022-10-03T00:04:34.823Z,10.54
2022-10-03T00:05:34.823Z,10.51
2022-10-03T00:06:34.853Z,10.51
2022-10-03T00:07:34.787Z,10.51
2022-10-03T00:08:34.824Z,10.54
2022-10-03T00:09:34.774Z,10.57
2022-10-03T00:10:34.754Z,10.57
2022-10-03T00:11:34.734Z,10.59
2022-10-03T00:12:34.715Z,10.60
2022-10-03T00:13:37.752Z,10.61
2022-10-03T00:14:37.695Z,10.68
2022-10-03T00:15:34.665Z,10.68
2022-10-03T00:16:34.656Z,10.69
2022-10-03T00:17:34.648Z,10.69
2022-10-03T00:18:34.627Z,10.69
2022-10-03T00:19:34.648Z,10.71
2022-10-03T00:20:34.599Z,10.68
2022-10-03T00:21:34.600Z,10.68
2022-10-03T00:22:34.648Z,10.64
2022-10-03T00:23:34.558Z,10.63
2022-10-03T00:24:34.548Z,10.63
2022-10-03T00:25:34.549Z,10.59
2022-10-03T00:26:34.517Z,10.59
2022-10-03T00:27:34.514Z,10.59
2022-10-03T00:28:34.572Z,10.57
2022-10-03T00:29:34.477Z,10.56
2022-10-03T00:30:34.480Z,10.53
2022-10-03T00:31:34.536Z,10.53
2022-10-03T00:32:34.432Z,10.51
2022-10-03T00:33:37.411Z,10.48
2022-10-03T00:34:37.413Z,10.51
2022-10-03T00:35:34.429Z,10.49
2022-10-03T00:36:34.372Z,10.51
2022-10-03T00:37:34.383Z,10.53
2022-10-03T00:38:34.343Z,10.54
2022-10-03T00:39:34.344Z,10.59
2022-10-03T00:40:34.336Z,10.67
2022-10-03T00:41:34.348Z,10.74
2022-10-03T00:42:34.354Z,10.81
2022-10-03T00:43:34.285Z,10.86
2022-10-03T00:44:34.266Z,10.92
2022-10-03T00:45:34.262Z,10.94
2022-10-03T00:46:34.274Z,10.96
2022-10-03T00:47:34.227Z,11.00
2022-10-03T00:48:34.236Z,10.99
2022-10-03T00:49:34.203Z,11.00
2022-10-03T00:50:34.186Z,11.00
2022-10-03T00:51:34.167Z,10.99
2022-10-03T00:52:34.157Z,11.00
2022-10-03T00:53:37.167Z,10.97
2022-10-03T00:54:37.142Z,11.02
2022-10-03T00:55:34.137Z,11.00
2022-10-03T00:56:34.099Z,11.04
2022-10-03T00:57:34.088Z,11.05
2022-10-03T00:58:34.120Z,11.04
2022-10-03T00:59:34.070Z,11.05
2022-10-03T01:00:34.108Z,11.04
2022-10-03T01:01:34.030Z,11.02
2022-10-03T01:02:34.079Z,11.02
2022-10-03T01:03:34.020Z,11.02
2022-10-03T01:04:34.010Z,11.00
2022-10-03T01:05:33.971Z,11.00
2022-10-03T01:06:33.961Z,11.02
2022-10-03T01:07:33.951Z,11.00
2022-10-03T01:08:33.933Z,11.00
2022-10-03T01:09:33.923Z,11.00
2022-10-03T01:10:33.972Z,10.99
2022-10-03T01:11:33.894Z,10.97
2022-10-03T01:12:33.884Z,10.96
2022-10-03T01:13:36.873Z,10.92
2022-10-03T01:14:36.872Z,10.92
2022-10-03T01:15:33.848Z,10.86
2022-10-03T01:16:33.903Z,10.84
2022-10-03T01:17:33.816Z,10.81
2022-10-03T01:18:33.805Z,10.78
2022-10-03T01:19:33.795Z,10.76
2022-10-03T01:20:33.815Z,10.76
2022-10-03T01:21:33.768Z,10.74
2022-10-03T01:22:33.756Z,10.72
2022-10-03T01:23:33.738Z,10.68
2022-10-03T01:24:33.728Z,10.63
2022-10-03T01:25:33.739Z,10.60
2022-10-03T01:26:33.726Z,10.57
2022-10-03T01:27:33.698Z,10.57
2022-10-03T01:28:33.671Z,10.57
2022-10-03T01:29:33.678Z,10.56
2022-10-03T01:30:33.665Z,10.57
2022-10-03T01:31:33.779Z,10.57
2022-10-03T01:32:33.609Z,10.56
2022-10-03T01:33:36.606Z,10.56
2022-10-03T01:34:36.599Z,10.53
2022-10-03T01:35:33.601Z,10.49
2022-10-03T01:36:33.570Z,10.49
2022-10-03T01:37:33.596Z,10.48
2022-10-03T01:38:33.541Z,10.48
2022-10-03T01:39:33.522Z,10.49
2022-10-03T01:40:33.523Z,10.49
2022-10-03T01:41:33.503Z,10.48
2022-10-03T01:42:33.483Z,10.48
2022-10-03T01:43:33.532Z,10.48
2022-10-03T01:44:33.456Z,10.41
2022-10-03T01:45:33.453Z,10.42
2022-10-03T01:46:33.456Z,10.42
2022-10-03T01:47:33.424Z,10.46
2022-10-03T01:48:33.405Z,10.48
2022-10-03T01:49:33.440Z,10.49
2022-10-03T01:50:33.381Z,10.51
2022-10-03T01:51:33.383Z,10.53
2022-10-03T01:52:33.355Z,10.53
2022-10-03T01:53:36.354Z,10.51
2022-10-03T01:54:36.387Z,10.53
2022-10-03T01:55:33.316Z,10.48
2022-10-03T01:56:33.307Z,10.49
2022-10-03T01:57:33.294Z,10.48
2022-10-03T01:58:33.327Z,10.49
2022-10-03T01:59:33.267Z,10.44
2022-10-03T02:00:33.257Z,10.42
2022-10-03T02:01:33.249Z,10.46
2022-10-03T02:02:33.231Z,10.53
2022-10-03T02:03:33.210Z,10.54
2022-10-03T02:04:33.229Z,10.54
2022-10-03T02:05:33.182Z,10.56
2022-10-03T02:06:33.209Z,10.57
2022-10-03T02:07:33.173Z,10.61
2022-10-03T02:08:33.193Z,10.60
2022-10-03T02:09:33.141Z,10.59
2022-10-03T02:10:33.124Z,10.61
2022-10-03T02:11:33.103Z,10.60
2022-10-03T02:12:33.085Z,10.60
2022-10-03T02:13:36.147Z,10.61
2022-10-03T02:14:36.083Z,10.63
2022-10-03T02:15:33.053Z,10.67
2022-10-03T02:16:33.069Z,10.68
2022-10-03T02:17:33.044Z,10.72
2022-10-03T02:18:33.013Z,10.72
2022-10-03T02:19:33.023Z,10.69
2022-10-03T02:20:32.985Z,10.67
2022-10-03T02:21:32.993Z,10.64
2022-10-03T02:22:32.974Z,10.67
2022-10-03T02:23:32.982Z,10.63
2022-10-03T02:24:32.942Z,10.59
2022-10-03T02:25:32.927Z,10.56
2022-10-03T02:26:32.905Z,10.54
2022-10-03T02:27:32.905Z,10.51
2022-10-03T02:28:32.971Z,10.48
2022-10-03T02:29:32.876Z,10.48
2022-10-03T02:30:32.867Z,10.46
2022-10-03T02:31:32.880Z,10.44
2022-10-03T02:32:32.839Z,10.44
2022-10-03T02:33:35.844Z,10.46
2022-10-03T02:34:35.838Z,10.46
2022-10-03T02:35:32.788Z,10.46
2022-10-03T02:36:32.781Z,10.46
2022-10-03T02:37:32.769Z,10.49
2022-10-03T02:38:32.745Z,10.49
2022-10-03T02:39:32.779Z,10.44
2022-10-03T02:40:32.771Z,10.42
2022-10-03T02:41:32.717Z,10.44
2022-10-03T02:42:32.709Z,10.51
2022-10-03T02:43:32.702Z,10.54
2022-10-03T02:44:32.710Z,10.59
2022-10-03T02:45:32.766Z,10.60
2022-10-03T02:46:32.653Z,10.61
2022-10-03T02:47:32.631Z,10.67
2022-10-03T02:48:32.844Z,10.71
2022-10-03T02:49:32.613Z,10.76
2022-10-03T02:50:32.647Z,10.81
2022-10-03T02:51:32.613Z,10.84
2022-10-03T02:52:32.573Z,10.84
2022-10-03T02:53:35.553Z,10.84
2022-10-03T02:54:35.565Z,10.89
2022-10-03T02:55:32.527Z,10.84
2022-10-03T02:56:32.585Z,10.84
2022-10-03T02:57:32.505Z,10.81
2022-10-03T02:58:32.495Z,10.76
2022-10-03T02:59:32.473Z,10.74
2022-10-03T03:00:32.475Z,10.72
2022-10-03T03:01:32.445Z,10.69
2022-10-03T03:02:32.548Z,10.67
2022-10-03T03:03:32.426Z,10.68
2022-10-03T03:04:32.422Z,10.68
2022-10-03T03:05:32.386Z,10.69
2022-10-03T03:06:32.400Z,10.68
2022-10-03T03:07:32.377Z,10.64
2022-10-03T03:08:32.386Z,10.61
2022-10-03T03:09:32.337Z,10.59
2022-10-03T03:10:32.328Z,10.56
2022-10-03T03:11:32.317Z,10.53
2022-10-03T03:12:32.329Z,10.46
2022-10-03T03:13:35.293Z,10.42
2022-10-03T03:14:35.349Z,10.41
2022-10-03T03:15:32.251Z,10.38
2022-10-03T03:16:32.296Z,10.37
2022-10-03T03:17:32.242Z,10.38
2022-10-03T03:18:32.237Z,10.38
2022-10-03T03:19:32.221Z,10.40
2022-10-03T03:20:32.231Z,10.41
2022-10-03T03:21:32.171Z,10.48
2022-10-03T03:22:32.174Z,10.54
2022-10-03T03:23:32.161Z,10.59
2022-10-03T03:24:32.156Z,10.60
2022-10-03T03:25:32.162Z,10.60
2022-10-03T03:26:32.113Z,10.63
2022-10-03T03:27:32.103Z,10.64
2022-10-03T03:28:32.139Z,10.68
2022-10-03T03:29:32.084Z,10.69
2022-10-03T03:30:32.117Z,10.71
2022-10-03T03:31:32.192Z,10.72
2022-10-03T03:32:32.044Z,10.72
2022-10-03T03:33:35.033Z,10.74
2022-10-03T03:34:35.035Z,10.78
2022-10-03T03:35:31.996Z,10.76
2022-10-03T03:36:32.047Z,10.78
2022-10-03T03:37:31.978Z,10.76
2022-10-03T03:38:31.967Z,10.75
2022-10-03T03:39:31.970Z,10.72
2022-10-03T03:40:31.937Z,10.72
2022-10-03T03:41:31.928Z,10.71
2022-10-03T03:42:31.948Z,10.71
2022-10-03T03:43:31.908Z,10.69
2022-10-03T03:44:31.890Z,10.71
2022-10-03T03:45:31.936Z,10.69
2022-10-03T03:46:31.857Z,10.69
2022-10-03T03:47:31.910Z,10.67
2022-10-03T03:48:31.850Z,10.63
2022-10-03T03:49:31.825Z,10.59
2022-10-03T03:50:31.814Z,10.56
2022-10-03T03:51:31.838Z,10.54
2022-10-03T03:52:31.780Z,10.53
2022-10-03T03:53:34.761Z,10.49
2022-10-03T03:54:34.772Z,10.46
2022-10-03T03:55:31.742Z,10.42
2022-10-03T03:56:31.733Z,10.38
2022-10-03T03:57:31.744Z,10.37
2022-10-03T03:58:31.702Z,10.33
2022-10-03T03:59:31.681Z,10.31
2022-10-03T04:00:31.681Z,10.33
2022-10-03T04:01:31.737Z,10.35
2022-10-03T04:02:31.758Z,10.37
2022-10-03T04:03:31.628Z,10.34
2022-10-03T04:04:31.655Z,10.33
2022-10-03T04:05:31.619Z,10.33
2022-10-03T04:06:31.607Z,10.30
2022-10-03T04:07:31.616Z,10.28
2022-10-03T04:08:31.573Z,10.28
2022-10-03T04:09:31.546Z,10.26
2022-10-03T04:10:31.566Z,10.26
2022-10-03T04:11:31.517Z,10.26
2022-10-03T04:12:31.516Z,10.30
2022-10-03T04:13:34.553Z,10.33
2022-10-03T04:14:34.507Z,10.37
2022-10-03T04:15:31.477Z,10.37
2022-10-03T04:16:31.505Z,10.40
2022-10-03T04:17:31.455Z,10.42
2022-10-03T04:18:31.439Z,10.46
2022-10-03T04:19:31.448Z,10.44
2022-10-03T04:20:31.411Z,10.41
2022-10-03T04:21:31.409Z,10.38
2022-10-03T04:22:31.430Z,10.35
2022-10-03T04:23:31.370Z,10.34
2022-10-03T04:24:31.350Z,10.37
2022-10-03T04:25:31.390Z,10.40
2022-10-03T04:26:31.343Z,10.41
2022-10-03T04:27:31.315Z,10.42
2022-10-03T04:28:31.332Z,10.42
2022-10-03T04:29:31.292Z,10.42
2022-10-03T04:30:31.278Z,10.42
2022-10-03T04:31:31.395Z,10.42
2022-10-03T04:32:31.294Z,10.44
2022-10-03T04:33:34.235Z,10.46
2022-10-03T04:34:34.250Z,10.49
2022-10-03T04:35:31.202Z,10.46
2022-10-03T04:36:31.203Z,10.42
2022-10-03T04:37:31.205Z,10.41
2022-10-03T04:38:31.174Z,10.40
2022-10-03T04:39:31.184Z,10.37
2022-10-03T04:40:31.144Z,10.34
2022-10-03T04:41:31.156Z,10.26
2022-10-03T04:42:31.144Z,10.25
2022-10-03T04:43:31.117Z,10.19
2022-10-03T04:44:31.124Z,10.16
2022-10-03T04:45:31.105Z,10.12
2022-10-03T04:46:31.072Z,10.12
2022-10-03T04:47:31.046Z,10.09
2022-10-03T04:48:31.037Z,10.07
2022-10-03T04:49:31.024Z,10.05
2022-10-03T04:50:31.047Z,10.02
2022-10-03T04:51:31.008Z,10.02
2022-10-03T04:52:30.988Z,10.02
2022-10-03T04:53:33.971Z,10.05
2022-10-03T04:54:33.979Z,10.09
2022-10-03T04:55:30.969Z,10.09
2022-10-03T04:56:30.929Z,10.10
2022-10-03T04:57:30.920Z,10.07
2022-10-03T04:58:30.915Z,10.04
2022-10-03T04:59:30.891Z,10.01
2022-10-03T05:00:30.910Z,10.01
2022-10-03T05:01:30.900Z,9.99
2022-10-03T05:02:30.924Z,9.97
2022-10-03T05:03:30.839Z,9.98
2022-10-03T05:04:30.962Z,9.99
2022-10-03T05:05:31.033Z,10.05
2022-10-03T05:06:30.836Z,10.10
2022-10-03T05:07:30.882Z,10.10
2022-10-03T05:08:30.843Z,10.10
2022-10-03T05:09:30.842Z,10.10
2022-10-03T05:10:30.843Z,10.10
2022-10-03T05:11:30.835Z,10.09
2022-10-03T05:12:30.814Z,10.10
2022-10-03T05:13:33.747Z,10.12
2022-10-03T05:14:33.815Z,10.13
2022-10-03T05:15:30.715Z,10.12
2022-10-03T05:16:30.851Z,10.13
2022-10-03T05:17:30.697Z,10.13
2022-10-03T05:18:30.697Z,10.13
2022-10-03T05:19:30.674Z,10.13
2022-10-03T05:20:30.646Z,10.13
2022-10-03T05:21:30.657Z,10.13
2022-10-03T05:22:30.686Z,10.13
2022-10-03T05:23:30.598Z,10.13
2022-10-03T05:24:30.668Z,10.12
2022-10-03T05:25:30.612Z,10.12
2022-10-03T05:26:46.297Z,10.07
2022-10-03T05:27:31.548Z,10.05
2022-10-03T05:28:30.578Z,10.02
2022-10-03T05:29:30.509Z,10.01
2022-10-03T05:30:30.480Z,9.98
2022-10-03T05:31:30.532Z,9.98
2022-10-03T05:32:30.479Z,9.98
2022-10-03T05:33:33.420Z,9.98
2022-10-03T05:34:33.439Z,9.99
2022-10-03T05:35:30.415Z,9.98
2022-10-03T05:36:30.397Z,9.97
2022-10-03T05:37:30.404Z,9.94
2022-10-03T05:38:30.362Z,9.94
2022-10-03T05:39:30.359Z,9.92
2022-10-03T05:40:30.346Z,9.95
2022-10-03T05:41:30.332Z,9.94
2022-10-03T05:43:48.162Z,9.95
2022-10-03T05:44:48.179Z,9.95
2022-10-03T05:45:48.164Z,9.95
2022-10-03T05:46:48.086Z,9.97
2022-10-03T05:47:48.067Z,9.95
2022-10-03T05:48:48.081Z,9.98
2022-10-03T05:49:48.031Z,9.97
2022-10-03T05:50:48.013Z,9.97
2022-10-03T05:51:47.972Z,10.01
2022-10-03T05:52:47.961Z,10.02
2022-10-03T05:53:47.961Z,10.04
2022-10-03T05:54:48.131Z,10.05
2022-10-03T05:55:47.916Z,10.10
2022-10-03T05:56:47.914Z,10.15
2022-10-03T05:57:47.892Z,10.17
2022-10-03T05:58:47.895Z,10.23
2022-10-03T05:59:47.872Z,10.28
2022-10-03T06:00:47.884Z,10.34
2022-10-03T06:01:47.961Z,10.38
2022-10-03T06:02:50.945Z,10.42
2022-10-03T06:03:50.853Z,10.49
2022-10-03T06:04:47.825Z,10.54
2022-10-03T06:05:47.785Z,10.59
2022-10-03T06:06:47.776Z,10.63
2022-10-03T06:07:47.765Z,10.69
2022-10-03T06:08:47.786Z,10.74
2022-10-03T06:09:47.748Z,10.79
2022-10-03T06:10:47.736Z,10.84
2022-10-03T06:11:47.717Z,10.87
2022-10-03T06:12:47.707Z,10.90
2022-10-03T06:13:47.709Z,10.93
2022-10-03T06:14:47.707Z,10.94
2022-10-03T06:15:47.709Z,10.96
2022-10-03T06:16:47.678Z,11.00
2022-10-03T06:17:47.640Z,11.00
2022-10-03T06:18:47.620Z,11.05
2022-10-03T06:19:47.639Z,11.05
2022-10-03T06:20:47.599Z,11.07
2022-10-03T06:21:47.634Z,11.10
2022-10-03T06:22:50.558Z,11.08
2022-10-03T06:23:50.564Z,11.07
2022-10-03T06:24:47.530Z,11.04
2022-10-03T06:25:47.521Z,11.02
2022-10-03T06:26:47.501Z,11.02
2022-10-03T06:27:47.739Z,11.00
2022-10-03T06:28:47.471Z,10.99
2022-10-03T06:29:47.471Z,10.99
2022-10-03T06:30:47.531Z,10.97
2022-10-03T06:31:47.471Z,10.96
2022-10-03T06:32:47.424Z,10.97
2022-10-03T06:33:47.493Z,10.96
2022-10-03T06:34:47.401Z,10.99
2022-10-03T06:35:47.385Z,11.00
2022-10-03T06:36:47.373Z,11.05
2022-10-03T06:37:47.378Z,11.12
2022-10-03T06:38:47.345Z,11.17
2022-10-03T06:39:47.375Z,11.25
2022-10-03T06:40:47.334Z,11.33
2022-10-03T06:41:47.308Z,11.43
2022-10-03T06:42:50.347Z,11.51
2022-10-03T06:43:50.308Z,11.60
2022-10-03T06:44:47.333Z,11.65
2022-10-03T06:45:47.302Z,11.65
2022-10-03T06:46:47.237Z,11.70
2022-10-03T06:47:47.218Z,11.70
2022-10-03T06:48:47.207Z,11.69
2022-10-03T06:49:47.197Z,11.69
2022-10-03T06:50:47.209Z,11.65
2022-10-03T06:51:47.168Z,11.62
2022-10-03T06:52:47.152Z,11.59
2022-10-03T06:53:47.138Z,11.59
2022-10-03T06:54:47.320Z,11.57
2022-10-03T06:55:47.151Z,11.55
2022-10-03T06:56:49.964Z,11.57
2022-10-03T06:57:47.092Z,11.55
2022-10-03T06:58:47.177Z,11.57
2022-10-03T06:59:47.157Z,11.57
2022-10-03T07:00:47.118Z,11.57
2022-10-03T07:01:47.146Z,11.60
2022-10-03T07:02:50.187Z,11.60
2022-10-03T07:03:50.174Z,11.62
2022-10-03T07:04:47.121Z,11.60
2022-10-03T07:05:47.023Z,11.60
2022-10-03T07:06:46.974Z,11.59
2022-10-03T07:07:46.954Z,11.62
2022-10-03T07:08:46.934Z,11.62
2022-10-03T07:09:46.915Z,11.66
2022-10-03T07:10:46.947Z,11.68
2022-10-03T07:11:46.887Z,11.73
2022-10-03T07:12:46.875Z,11.77
2022-10-03T07:13:46.885Z,11.80
2022-10-03T07:14:46.973Z,11.84
2022-10-03T07:16:10.703Z,11.86
2022-10-03T07:16:47.979Z,11.88
2022-10-03T07:17:46.836Z,11.94
2022-10-03T07:18:46.844Z,11.90
2022-10-03T07:19:46.786Z,11.90
2022-10-03T07:20:47.048Z,11.94
2022-10-03T07:21:46.807Z,11.90
2022-10-03T07:22:49.736Z,11.88
2022-10-03T07:23:49.789Z,11.91
2022-10-03T07:24:46.749Z,11.88
2022-10-03T07:25:46.729Z,11.90
2022-10-03T07:26:46.739Z,11.87
2022-10-03T07:27:50.990Z,11.86
2022-10-03T07:28:46.679Z,11.87
2022-10-03T07:29:46.683Z,11.84
2022-10-03T07:30:46.712Z,11.86
2022-10-03T07:31:46.610Z,11.87
2022-10-03T07:32:46.581Z,11.87
2022-10-03T07:33:46.580Z,11.87
2022-10-03T07:34:46.560Z,11.90
2022-10-03T07:35:46.584Z,11.91
2022-10-03T07:36:46.535Z,11.95
2022-10-03T07:37:46.520Z,11.99
2022-10-03T07:38:46.503Z,12.02
2022-10-03T07:39:46.500Z,12.07
2022-10-03T07:40:46.502Z,12.09
2022-10-03T07:41:46.473Z,12.13
2022-10-03T07:42:49.445Z,12.15
2022-10-03T07:43:49.450Z,12.21
2022-10-03T07:44:46.415Z,12.22
2022-10-03T07:45:46.434Z,12.27
2022-10-03T07:46:46.439Z,12.29
2022-10-03T07:47:46.385Z,12.31
2022-10-03T07:48:46.392Z,12.32
2022-10-03T07:49:46.378Z,12.36
2022-10-03T07:50:46.345Z,12.37
2022-10-03T07:51:46.325Z,12.39
2022-10-03T07:52:46.308Z,12.42
2022-10-03T07:53:46.326Z,12.46
2022-10-03T07:54:46.330Z,12.49
2022-10-03T07:55:46.287Z,12.55
2022-10-03T07:56:46.264Z,12.58
2022-10-03T07:57:46.247Z,12.64
2022-10-03T07:58:46.265Z,12.68
2022-10-03T07:59:46.251Z,12.72
2022-10-03T08:00:46.212Z,12.78
2022-10-03T08:01:46.202Z,12.83
2022-10-03T08:02:49.245Z,12.87
2022-10-03T08:03:49.366Z,12.98
2022-10-03T08:04:46.151Z,13.01
2022-10-03T08:05:46.150Z,13.08
2022-10-03T08:06:46.177Z,13.12
2022-10-03T08:07:46.111Z,13.15
2022-10-03T08:08:46.112Z,13.15
2022-10-03T08:09:46.161Z,13.08
2022-10-03T08:10:46.081Z,13.08
2022-10-03T08:11:46.073Z,13.05
2022-10-03T08:12:46.055Z,13.01
2022-10-03T08:13:46.062Z,13.00
2022-10-03T08:14:46.032Z,13.01
2022-10-03T08:15:46.073Z,13.03
2022-10-03T08:16:46.021Z,13.05
2022-10-03T08:17:45.975Z,13.03
2022-10-03T08:18:45.971Z,13.00
2022-10-03T08:19:45.955Z,12.98
2022-10-03T08:20:45.975Z,12.95
2022-10-03T08:21:45.935Z,12.98
2022-10-03T08:22:48.907Z,13.00
2022-10-03T08:23:48.915Z,13.03
2022-10-03T08:24:45.885Z,13.04
2022-10-03T08:25:45.917Z,13.09
2022-10-03T08:26:45.931Z,13.12
2022-10-03T08:27:45.840Z,13.15
2022-10-03T08:28:45.837Z,13.19
2022-10-03T08:29:45.820Z,13.23
2022-10-03T08:30:45.840Z,13.28
2022-10-03T08:31:45.844Z,13.31
2022-10-03T08:32:48.700Z,13.38
2022-10-03T08:33:45.779Z,13.44
2022-10-03T08:34:45.749Z,13.49
2022-10-03T08:35:45.742Z,13.56
2022-10-03T08:36:45.773Z,13.63
2022-10-03T08:37:45.710Z,13.72
2022-10-03T08:38:45.699Z,13.85
2022-10-03T08:39:45.684Z,13.96
2022-10-03T08:40:45.661Z,14.00
2022-10-03T08:41:45.670Z,14.07
2022-10-03T08:42:48.677Z,14.11
2022-10-03T08:43:48.659Z,14.15
2022-10-03T08:44:45.615Z,14.15
2022-10-03T08:45:45.603Z,14.17
2022-10-03T08:46:45.690Z,14.18
2022-10-03T08:47:45.623Z,14.22
2022-10-03T08:48:45.591Z,14.22
2022-10-03T08:49:45.583Z,14.28
2022-10-03T08:50:45.535Z,14.29
2022-10-03T08:51:45.533Z,14.35
2022-10-03T08:52:45.509Z,14.36
2022-10-03T08:53:45.504Z,14.37
2022-10-03T08:54:45.536Z,14.44
2022-10-03T08:55:45.502Z,14.55
2022-10-03T08:56:45.456Z,14.66
2022-10-03T08:57:45.436Z,14.69
2022-10-03T08:58:45.424Z,14.69
2022-10-03T08:59:45.459Z,14.66
2022-10-03T09:00:45.392Z,14.69
2022-10-03T09:01:45.570Z,14.68
2022-10-03T09:03:02.141Z,14.66
2022-10-03T09:03:49.402Z,14.69
2022-10-03T09:04:45.359Z,14.68
2022-10-03T09:05:45.359Z,14.72
2022-10-03T09:07:12.282Z,14.78
2022-10-03T09:07:46.299Z,14.84
2022-10-03T09:08:45.281Z,14.88
2022-10-03T09:09:45.280Z,14.91
2022-10-03T09:10:45.282Z,14.96
2022-10-03T09:11:45.296Z,15.02
2022-10-03T09:12:45.255Z,14.99
2022-10-03T09:13:45.225Z,14.99
2022-10-03T09:14:45.223Z,14.97
2022-10-03T09:15:45.303Z,15.04
2022-10-03T09:16:45.397Z,15.00
2022-10-03T09:17:45.172Z,15.02
2022-10-03T09:18:45.154Z,15.03
2022-10-03T09:19:45.141Z,15.09
2022-10-03T09:20:45.134Z,15.19
2022-10-03T09:21:45.145Z,15.33
2022-10-03T09:22:48.106Z,15.49
2022-10-03T09:23:48.107Z,15.62
2022-10-03T09:24:45.083Z,15.68
2022-10-03T09:25:45.070Z,15.72
2022-10-03T09:26:45.089Z,15.75
2022-10-03T09:27:45.038Z,15.67
2022-10-03T09:28:45.007Z,15.65
2022-10-03T09:29:45.030Z,15.73
2022-10-03T09:30:44.986Z,15.79
2022-10-03T09:31:45.032Z,15.83
2022-10-03T09:32:44.968Z,15.95
2022-10-03T09:33:44.949Z,16.00
2022-10-03T09:34:44.980Z,16.01
2022-10-03T09:35:44.910Z,16.02
2022-10-03T09:36:44.914Z,15.98
2022-10-03T09:37:44.881Z,16.00
2022-10-03T09:38:44.862Z,15.98
2022-10-03T09:39:44.867Z,15.98
2022-10-03T09:40:44.861Z,15.98
2022-10-03T09:41:44.832Z,15.95
2022-10-03T09:42:47.827Z,15.77
2022-10-03T09:43:47.813Z,15.70
2022-10-03T09:44:44.913Z,15.75
2022-10-03T09:45:44.854Z,15.79
2022-10-03T09:46:46.556Z,15.82
2022-10-03T09:47:44.858Z,15.90
2022-10-03T09:48:44.738Z,15.94
2022-10-03T09:49:45.083Z,15.86
2022-10-03T09:50:44.714Z,15.91
2022-10-03T09:51:44.733Z,15.86
2022-10-03T09:52:44.694Z,15.90
2022-10-03T09:53:44.678Z,15.97
2022-10-03T09:54:44.657Z,15.98
2022-10-03T09:55:44.666Z,16.02
2022-10-03T09:56:44.667Z,15.98
2022-10-03T09:57:44.627Z,15.95
2022-10-03T09:58:44.599Z,16.01
2022-10-03T09:59:44.587Z,16.09
2022-10-03T10:00:44.607Z,16.16
2022-10-03T10:01:44.587Z,16.29
2022-10-03T10:02:47.546Z,16.31
2022-10-03T10:03:47.624Z,16.36
2022-10-03T10:04:54.802Z,16.38
2022-10-03T10:05:45.502Z,16.51
2022-10-03T10:06:44.520Z,16.50
2022-10-03T10:07:44.491Z,16.58
2022-10-03T10:08:44.501Z,16.65
2022-10-03T10:09:44.492Z,16.66
2022-10-03T10:10:44.441Z,16.81
2022-10-03T10:11:44.427Z,16.97
2022-10-03T10:12:44.412Z,17.01
2022-10-03T10:14:06.124Z,16.91
2022-10-03T10:14:45.444Z,16.87
2022-10-03T10:15:44.420Z,16.74
2022-10-03T10:16:47.957Z,16.66
2022-10-03T10:17:44.344Z,16.56
2022-10-03T10:18:44.325Z,16.51
2022-10-03T10:19:44.325Z,16.51
2022-10-03T10:20:44.337Z,16.58
2022-10-03T10:21:44.317Z,16.72
2022-10-03T10:22:47.296Z,16.89
2022-10-03T10:23:47.319Z,16.97
2022-10-03T10:24:44.307Z,16.91
2022-10-03T10:25:44.298Z,16.84
2022-10-03T10:26:44.704Z,16.87
2022-10-03T10:27:44.235Z,16.89
2022-10-03T10:28:45.170Z,16.83
2022-10-03T10:29:44.199Z,16.83
2022-10-03T10:30:44.228Z,16.75
2022-10-03T10:31:44.269Z,16.68
2022-10-03T10:32:44.200Z,16.71
2022-10-03T10:33:44.159Z,16.75
2022-10-03T10:34:44.125Z,16.87
2022-10-03T10:35:44.151Z,16.93
2022-10-03T10:36:44.279Z,17.04
2022-10-03T10:37:46.366Z,17.20
2022-10-03T10:38:44.073Z,17.20
2022-10-03T10:39:44.044Z,17.23
2022-10-03T10:40:44.048Z,17.20
2022-10-03T10:41:44.021Z,17.27
2022-10-03T10:42:47.073Z,17.30
2022-10-03T10:43:47.005Z,17.33
2022-10-03T10:44:43.994Z,17.44
2022-10-03T10:45:43.966Z,17.57
2022-10-03T10:46:44.403Z,17.60
2022-10-03T10:47:43.937Z,17.64
2022-10-03T10:48:43.959Z,17.63
2022-10-03T10:49:43.949Z,17.57
2022-10-03T10:50:43.967Z,17.39
2022-10-03T10:51:43.886Z,17.26
2022-10-03T10:52:43.911Z,17.05
2022-10-03T10:53:43.919Z,16.99
2022-10-03T10:54:43.879Z,16.96
2022-10-03T10:55:46.211Z,17.05
2022-10-03T10:56:44.034Z,16.96
2022-10-03T10:57:43.802Z,16.90
2022-10-03T10:58:43.794Z,16.96
2022-10-03T10:59:43.821Z,17.09
2022-10-03T11:00:43.815Z,17.20
2022-10-03T11:01:45.979Z,17.19
2022-10-03T11:02:46.752Z,17.14
2022-10-03T11:03:46.822Z,17.20
2022-10-03T11:04:43.749Z,17.23
2022-10-03T11:05:43.714Z,17.34
2022-10-03T11:06:43.968Z,17.51
2022-10-03T11:07:43.672Z,17.70
2022-10-03T11:08:43.656Z,17.79
2022-10-03T11:09:43.636Z,17.65
2022-10-03T11:10:43.654Z,17.56
2022-10-03T11:11:43.606Z,17.52
2022-10-03T11:12:43.625Z,17.46
2022-10-03T11:13:43.589Z,17.38
2022-10-03T11:14:43.602Z,17.42
2022-10-03T11:15:43.577Z,17.57
2022-10-03T11:16:44.207Z,17.63
2022-10-03T11:17:43.758Z,17.70
2022-10-03T11:18:43.598Z,17.82
2022-10-03T11:19:43.500Z,17.80
2022-10-03T11:20:43.538Z,17.74
2022-10-03T11:21:43.479Z,17.60
2022-10-03T11:22:46.504Z,17.63
2022-10-03T11:23:46.481Z,17.67
2022-10-03T11:24:43.453Z,17.71
2022-10-03T11:25:43.438Z,17.82
2022-10-03T11:26:43.724Z,17.72
2022-10-03T11:27:43.383Z,17.72
2022-10-03T11:28:43.489Z,17.72
2022-10-03T11:29:43.362Z,17.67
2022-10-03T11:30:43.374Z,17.54
2022-10-03T11:31:43.414Z,17.45
2022-10-03T11:32:43.315Z,17.27
2022-10-03T11:33:43.303Z,17.23
2022-10-03T11:34:43.345Z,17.20
2022-10-03T11:35:43.332Z,17.22
2022-10-03T11:36:43.671Z,17.11
2022-10-03T11:37:43.245Z,17.05
2022-10-03T11:38:43.247Z,17.08
2022-10-03T11:39:43.258Z,17.16
2022-10-03T11:40:43.247Z,17.26
2022-10-03T11:41:43.237Z,17.29
2022-10-03T11:42:53.172Z,17.26
2022-10-03T11:43:46.159Z,17.20
2022-10-03T11:44:43.138Z,17.12
2022-10-03T11:45:43.158Z,17.14
2022-10-03T11:46:43.661Z,17.26
2022-10-03T11:47:43.118Z,17.38
2022-10-03T11:48:43.081Z,17.54
2022-10-03T11:49:43.091Z,17.52
2022-10-03T11:50:43.054Z,17.46
2022-10-03T11:51:43.073Z,17.48
2022-10-03T11:52:43.051Z,17.52
2022-10-03T11:53:43.011Z,17.59
2022-10-03T11:54:43.023Z,17.70
2022-10-03T11:55:42.976Z,17.74
2022-10-03T11:56:43.535Z,17.71
2022-10-03T11:57:42.953Z,17.74
2022-10-03T11:58:42.965Z,17.65
2022-10-03T11:59:42.945Z,17.51
2022-10-03T12:00:42.915Z,17.39
2022-10-03T12:01:43.189Z,17.29
2022-10-03T12:02:45.991Z,17.16
2022-10-03T12:03:45.920Z,17.19
2022-10-03T12:04:42.860Z,17.27
2022-10-03T12:05:42.841Z,17.34
2022-10-03T12:06:42.828Z,17.48
2022-10-03T12:07:42.809Z,17.52
2022-10-03T12:08:42.799Z,17.51
2022-10-03T12:09:42.837Z,17.33
2022-10-03T12:10:42.780Z,17.11
2022-10-03T12:11:43.091Z,17.02
2022-10-03T12:12:42.752Z,17.09
2022-10-03T12:13:42.730Z,17.22
2022-10-03T12:14:42.721Z,17.39
2022-10-03T12:15:42.758Z,17.51
2022-10-03T12:16:42.718Z,17.56
2022-10-03T12:17:42.673Z,17.65
2022-10-03T12:18:42.662Z,17.70
2022-10-03T12:19:42.653Z,17.79
2022-10-03T12:20:42.645Z,17.85
2022-10-03T12:21:42.834Z,17.82
2022-10-03T12:22:45.616Z,17.82
2022-10-03T12:23:45.636Z,17.85
2022-10-03T12:24:42.599Z,17.80
2022-10-03T12:25:42.567Z,17.80
2022-10-03T12:26:42.565Z,17.74
2022-10-03T12:27:42.605Z,17.68
2022-10-03T12:28:42.528Z,17.71
2022-10-03T12:29:42.517Z,17.72
2022-10-03T12:30:42.509Z,17.65
2022-10-03T12:31:42.769Z,17.51
2022-10-03T12:32:42.481Z,17.33
2022-10-03T12:33:42.488Z,17.29
2022-10-03T12:34:42.449Z,17.31
2022-10-03T12:35:42.440Z,17.38
2022-10-03T12:36:42.431Z,17.49
2022-10-03T12:37:42.417Z,17.49
2022-10-03T12:38:42.469Z,17.56
2022-10-03T12:39:42.380Z,17.57
2022-10-03T12:40:42.376Z,17.65
2022-10-03T12:41:42.712Z,17.68
2022-10-03T12:42:45.343Z,17.72
2022-10-03T12:43:45.520Z,17.72
2022-10-03T12:44:42.314Z,17.60
2022-10-03T12:45:42.325Z,17.57
2022-10-03T12:46:42.294Z,17.65
2022-10-03T12:47:55.238Z,17.65
2022-10-03T12:48:43.266Z,17.65
2022-10-03T12:49:42.296Z,17.64
2022-10-03T12:50:42.235Z,17.67
2022-10-03T12:51:42.645Z,17.54
2022-10-03T12:52:42.206Z,17.57
2022-10-03T12:53:42.216Z,17.57
2022-10-03T12:54:42.185Z,17.54